Lakes of Four Seasons, Indiana
Current Conditions -  °F | °C
As of 9:55 PM on Saturday 25 Oct 2014 (Local Time) from KIGQ Reporting Station
Clear Clear  
Wind Chill: 58°   Ceiling: Unl
Heat Index: 58°   Visibility: 10mi
Dew Point: 31°   Wind: 8mph
Humidity: 35%   Direction: 310°NW
Pressure: 29.96"   Gusts: NA
Location:  41.4039°N, 87.3294°W
Report Text: KIGQ 260255Z AUTO 31007KT 10SM CLR 15/M01 A2996 RMK AO2 T01461006
Loading
Personal Weather Stations






























Interactive Weather Map New forecast layout! Learn more

10-Day Weather Forecast

Advertisements
Track Severe Weather on mobile